Time;durP1;ratioP1;P1;durP2;ratioP2;P2;SDS_P1;SDS_P2;PMS_P1;PMS_P2;Temp;Humidity;BMP_temperature;BMP_pressure;BME280_temperature;BME280_humidity;BME280_pressure;Samples;Min_cycle;Max_cycle;Signal;HPM_P1;HPM_P2
2023/04/03 00:00:23;;;;;;;3.85;2.83;;;6.30;83.60;;;;;;5054488;28;20032;-66
2023/04/03 00:02:49;;;;;;;3.65;2.63;;;6.20;83.30;;;;;;5053967;28;20033;-67
2023/04/03 00:05:15;;;;;;;5.70;2.70;;;6.30;83.60;;;;;;5054281;28;20021;-66
2023/04/03 00:07:40;;;;;;;5.13;2.47;;;6.30;83.50;;;;;;5053963;28;20104;-69
2023/04/03 00:10:07;;;;;;;4.75;2.72;;;6.30;83.80;;;;;;5053145;28;20171;-67
2023/04/03 00:12:32;;;;;;;2.78;2.22;;;6.30;83.40;;;;;;5053946;28;20021;-66
2023/04/03 00:14:58;;;;;;;4.47;2.70;;;6.30;83.40;;;;;;5053591;28;20031;-66
2023/04/03 00:17:24;;;;;;;4.35;2.58;;;6.30;83.40;;;;;;5054106;28;20108;-67
2023/04/03 00:19:49;;;;;;;4.03;2.53;;;6.30;83.20;;;;;;5053660;28;20029;-66
2023/04/03 00:22:15;;;;;;;5.90;2.92;;;6.30;83.00;;;;;;5052762;28;20513;-66
2023/04/03 00:24:41;;;;;;;2.90;2.20;;;6.30;83.00;;;;;;5053986;28;20103;-66
2023/04/03 00:27:07;;;;;;;3.33;2.45;;;6.30;83.30;;;;;;5054002;28;20083;-67
2023/04/03 00:29:33;;;;;;;4.05;2.50;;;6.30;83.90;;;;;;5053589;28;20033;-67
2023/04/03 00:31:58;;;;;;;4.85;2.90;;;6.30;83.60;;;;;;5053500;28;20485;-67
2023/04/03 00:34:24;;;;;;;3.80;2.42;;;6.30;83.40;;;;;;5053857;28;20477;-66
2023/04/03 00:36:51;;;;;;;3.35;2.47;;;6.30;83.90;;;;;;5053268;28;20454;-67
2023/04/03 00:39:17;;;;;;;2.78;2.47;;;6.30;83.60;;;;;;5053793;28;20131;-66
2023/04/03 00:41:42;;;;;;;4.78;2.50;;;6.30;83.90;;;;;;5053556;28;20470;-75
2023/04/03 00:44:23;;;;;;;5.78;3.08;;;6.30;83.70;;;;;;5053669;28;20049;-65
2023/04/03 00:46:48;;;;;;;7.53;2.60;;;6.30;83.80;;;;;;5053199;28;20441;-66
2023/04/03 00:49:14;;;;;;;4.50;2.65;;;6.30;84.00;;;;;;5053521;28;20156;-66
2023/04/03 00:51:40;;;;;;;3.65;2.40;;;6.30;84.00;;;;;;5053269;28;20025;-66
2023/04/03 00:54:07;;;;;;;5.93;2.35;;;6.30;84.10;;;;;;5053094;28;20025;-66
2023/04/03 00:56:33;;;;;;;3.53;2.55;;;6.30;84.20;;;;;;5053436;28;20025;-66
2023/04/03 00:59:06;;;;;;;3.33;2.28;;;6.30;84.20;;;;;;5052892;28;20060;-66
2023/04/03 01:01:32;;;;;;;5.15;2.67;;;6.30;84.10;;;;;;5053370;28;20053;-66
2023/04/03 01:04:02;;;;;;;2.97;2.22;;;6.30;84.10;;;;;;5052598;28;20469;-66
2023/04/03 01:06:32;;;;;;;5.05;2.42;;;6.30;83.90;;;;;;5053324;28;20150;-66
2023/04/03 01:09:00;;;;;;;4.60;2.33;;;6.30;84.10;;;;;;5052820;28;20033;-66
2023/04/03 01:11:26;;;;;;;3.60;2.50;;;6.30;84.60;;;;;;5053060;28;20044;-66
2023/04/03 01:13:52;;;;;;;4.85;2.60;;;6.30;84.30;;;;;;5052604;28;20067;-66
2023/04/03 01:16:19;;;;;;;3.33;2.30;;;6.30;84.70;;;;;;5053029;28;20078;-66
2023/04/03 01:18:46;;;;;;;4.38;2.53;;;6.30;84.90;;;;;;5053186;28;20029;-66
2023/04/03 01:21:36;;;;;;;4.25;2.50;;;6.30;85.10;;;;;;5053267;28;20033;-66
2023/04/03 01:24:18;;;;;;;3.20;2.20;;;6.40;85.20;;;;;;5052602;28;20078;-67
2023/04/03 01:26:44;;;;;;;6.38;2.28;;;6.40;85.10;;;;;;5052966;28;20021;-67
2023/04/03 01:29:11;;;;;;;3.05;2.42;;;6.40;85.10;;;;;;5052052;28;20044;-67
2023/04/03 01:31:58;;;;;;;4.95;2.58;;;6.40;85.20;;;;;;5052860;28;20050;-66
2023/04/03 01:34:25;;;;;;;4.45;2.75;;;6.40;85.40;;;;;;5052446;28;20025;-67
2023/04/03 01:36:51;;;;;;;3.58;2.53;;;6.40;85.30;;;;;;5051983;28;20013;-67
2023/04/03 01:39:17;;;;;;;3.55;2.50;;;6.40;85.20;;;;;;5052130;28;20029;-67
2023/04/03 01:41:43;;;;;;;3.63;2.40;;;6.40;85.20;;;;;;5052893;28;20055;-67
2023/04/03 01:44:09;;;;;;;3.83;2.42;;;6.40;85.20;;;;;;5051931;28;20064;-66
2023/04/03 01:46:37;;;;;;;6.95;2.72;;;6.40;85.20;;;;;;5052998;28;20017;-66
2023/04/03 01:49:03;;;;;;;3.28;2.47;;;6.40;85.60;;;;;;5052356;28;20033;-66
2023/04/03 01:51:30;;;;;;;4.15;2.42;;;6.40;85.70;;;;;;5051531;28;20115;-65
2023/04/03 01:53:55;;;;;;;4.97;2.67;;;6.30;85.50;;;;;;5052489;28;20112;-66
2023/04/03 01:56:21;;;;;;;3.65;2.70;;;6.30;86.00;;;;;;5052597;28;20100;-65
2023/04/03 01:58:47;;;;;;;3.78;2.42;;;6.30;85.40;;;;;;5055100;28;20029;-67
2023/04/03 02:01:12;;;;;;;3.72;2.00;;;6.30;85.30;;;;;;5056012;28;20147;-67
2023/04/03 02:03:38;;;;;;;3.20;2.50;;;6.30;85.10;;;;;;5056988;28;20071;-67
2023/04/03 02:06:04;;;;;;;5.72;2.40;;;6.20;85.10;;;;;;5055420;28;20025;-67
2023/04/03 02:08:30;;;;;;;4.22;2.60;;;6.20;85.40;;;;;;5052437;28;20021;-66
2023/04/03 02:10:55;;;;;;;3.33;2.08;;;6.20;85.60;;;;;;5052003;28;20075;-66
2023/04/03 02:13:21;;;;;;;3.75;2.38;;;6.30;85.80;;;;;;5052522;28;20021;-67
2023/04/03 02:15:47;;;;;;;3.78;2.65;;;6.30;86.00;;;;;;5052435;28;20139;-66
2023/04/03 02:18:13;;;;;;;2.50;2.17;;;6.20;86.00;;;;;;5050735;28;20385;-66
2023/04/03 02:20:38;;;;;;;3.47;2.13;;;6.20;85.80;;;;;;5052025;28;20029;-66
2023/04/03 02:23:05;;;;;;;2.65;2.10;;;6.20;85.60;;;;;;5051702;28;20104;-66
2023/04/03 02:25:32;;;;;;;2.78;2.10;;;6.30;85.50;;;;;;5052245;28;20052;-67
2023/04/03 02:27:58;;;;;;;4.32;2.80;;;6.30;85.50;;;;;;5051907;28;20029;-67
2023/04/03 02:30:23;;;;;;;3.05;2.30;;;6.30;85.50;;;;;;5052184;28;20032;-66
2023/04/03 02:32:49;;;;;;;4.32;2.35;;;6.20;85.70;;;;;;5052210;28;20052;-66
2023/04/03 02:35:15;;;;;;;3.53;2.20;;;6.20;86.00;;;;;;5051812;28;20033;-66
2023/04/03 02:37:41;;;;;;;4.32;2.65;;;6.20;86.40;;;;;;5051944;28;20450;-66
2023/04/03 02:40:07;;;;;;;3.45;2.40;;;6.20;86.00;;;;;;5052231;28;20123;-66
2023/04/03 02:42:33;;;;;;;3.53;2.60;;;6.20;86.10;;;;;;5055771;28;20028;-67
2023/04/03 02:45:00;;;;;;;4.45;2.72;;;6.20;86.60;;;;;;5055067;28;20424;-67
2023/04/03 02:47:26;;;;;;;4.93;2.55;;;6.20;86.70;;;;;;5055755;28;20039;-66
2023/04/03 02:49:52;;;;;;;7.50;3.25;;;6.20;86.90;;;;;;5055126;28;20029;-74
2023/04/03 02:52:18;;;;;;;3.60;2.90;;;6.20;87.30;;;;;;5055743;28;20079;-67
2023/04/03 02:54:44;;;;;;;5.07;3.08;;;6.20;87.30;;;;;;5054465;28;20025;-67
2023/04/03 02:57:10;;;;;;;6.30;2.70;;;6.20;87.60;;;;;;5054005;28;20485;-66
2023/04/03 02:59:40;;;;;;;4.38;3.05;;;6.20;87.80;;;;;;5055380;28;20171;-66
2023/04/03 03:02:07;;;;;;;5.07;2.78;;;6.20;88.00;;;;;;5054968;28;20525;-67
2023/04/03 03:04:33;;;;;;;6.43;3.10;;;6.20;88.50;;;;;;5056158;28;20029;-66
2023/04/03 03:06:58;;;;;;;4.55;2.97;;;6.20;88.30;;;;;;5057243;28;20487;-67
2023/04/03 03:09:25;;;;;;;4.15;2.60;;;6.20;87.90;;;;;;5056174;28;20052;-67
2023/04/03 03:11:51;;;;;;;5.15;2.83;;;6.20;87.80;;;;;;5060374;28;20031;-65
2023/04/03 03:14:16;;;;;;;8.43;2.60;;;6.10;87.70;;;;;;5057444;28;20432;-66
2023/04/03 03:16:42;;;;;;;3.67;2.63;;;6.20;88.00;;;;;;5055350;28;20033;-66
2023/04/03 03:19:08;;;;;;;3.03;2.50;;;6.20;87.40;;;;;;5054922;28;20485;-66
2023/04/03 03:21:33;;;;;;;3.88;2.72;;;6.20;87.30;;;;;;5055125;28;20037;-66
2023/04/03 03:23:59;;;;;;;3.42;2.50;;;6.20;87.00;;;;;;5055204;28;20110;-67
2023/04/03 03:26:25;;;;;;;3.33;2.67;;;6.10;87.20;;;;;;5054951;28;20450;-67
2023/04/03 03:28:50;;;;;;;2.90;2.22;;;6.10;86.40;;;;;;5054497;28;20115;-66
2023/04/03 03:31:16;;;;;;;2.67;2.30;;;6.10;86.70;;;;;;5054957;28;20063;-66
2023/04/03 03:33:42;;;;;;;4.88;2.22;;;6.10;86.90;;;;;;5055075;28;20061;-66
2023/04/03 03:36:07;;;;;;;2.70;2.08;;;6.10;86.40;;;;;;5054599;28;20021;-66
2023/04/03 03:38:33;;;;;;;3.22;2.38;;;6.00;86.70;;;;;;5054942;28;20385;-65
2023/04/03 03:40:59;;;;;;;4.97;2.55;;;6.00;86.50;;;;;;5054452;28;20473;-65
2023/04/03 03:43:25;;;;;;;3.45;2.42;;;6.00;86.80;;;;;;5054671;28;20159;-66
2023/04/03 03:45:52;;;;;;;3.88;2.78;;;6.00;87.00;;;;;;5054379;28;20032;-65
2023/04/03 03:48:18;;;;;;;3.08;2.20;;;6.00;87.00;;;;;;5054274;28;20029;-66
2023/04/03 03:50:44;;;;;;;2.83;1.80;;;6.00;86.70;;;;;;5054324;28;20381;-66
2023/04/03 03:53:10;;;;;;;4.75;2.33;;;6.00;86.80;;;;;;5053932;28;20104;-66
2023/04/03 03:55:35;;;;;;;3.55;2.10;;;6.00;87.30;;;;;;5054561;28;20098;-66
2023/04/03 03:58:01;;;;;;;2.47;2.22;;;6.00;87.70;;;;;;5053814;28;20036;-65
2023/04/03 04:00:27;;;;;;;6.28;2.58;;;6.00;88.10;;;;;;5054352;28;20025;-65
2023/04/03 04:02:53;;;;;;;4.53;2.42;;;6.00;88.00;;;;;;5054491;28;20079;-65
2023/04/03 04:05:18;;;;;;;3.88;2.67;;;6.00;87.80;;;;;;5053677;28;20393;-65
2023/04/03 04:07:44;;;;;;;4.35;2.20;;;6.00;87.70;;;;;;5054411;28;20036;-65
2023/04/03 04:10:10;;;;;;;6.03;2.05;;;6.00;87.80;;;;;;5053933;28;20028;-65
2023/04/03 04:12:35;;;;;;;4.00;2.17;;;6.00;87.50;;;;;;5054241;28;20028;-65
2023/04/03 04:15:02;;;;;;;3.97;2.30;;;6.00;87.70;;;;;;5053518;28;20036;-64
2023/04/03 04:17:28;;;;;;;3.05;2.20;;;6.00;87.50;;;;;;5054188;28;20024;-65
2023/04/03 04:19:53;;;;;;;3.28;2.15;;;6.00;87.60;;;;;;5054017;28;20029;-66
2023/04/03 04:22:19;;;;;;;4.30;2.50;;;6.00;87.50;;;;;;5053430;28;20049;-67
2023/04/03 04:24:44;;;;;;;5.07;2.80;;;6.00;87.30;;;;;;5053860;28;20385;-66
2023/04/03 04:27:10;;;;;;;4.05;2.55;;;6.00;87.20;;;;;;5053349;28;20025;-66
2023/04/03 04:29:37;;;;;;;10.07;2.38;;;6.00;87.30;;;;;;5053902;28;20037;-66
2023/04/03 04:32:05;;;;;;;7.13;2.63;;;5.90;87.70;;;;;;5053445;28;20037;-67
2023/04/03 04:34:31;;;;;;;4.65;2.33;;;6.00;88.00;;;;;;5053737;28;20520;-66
2023/04/03 04:36:56;;;;;;;4.07;2.83;;;6.00;88.00;;;;;;5053764;28;20116;-66
2023/04/03 04:39:22;;;;;;;4.95;2.65;;;6.00;88.20;;;;;;5053263;28;20032;-67
2023/04/03 04:41:48;;;;;;;5.75;2.95;;;6.00;88.20;;;;;;5053621;28;20452;-66
2023/04/03 04:44:13;;;;;;;4.07;2.67;;;6.00;88.10;;;;;;5053181;28;20103;-66
2023/04/03 04:46:39;;;;;;;6.55;2.72;;;5.90;88.40;;;;;;5053640;28;20033;-66
2023/04/03 04:49:05;;;;;;;4.97;2.60;;;5.90;88.30;;;;;;5053194;28;20047;-66
2023/04/03 04:51:31;;;;;;;4.40;2.80;;;5.90;88.80;;;;;;5053434;28;20359;-66
2023/04/03 04:53:56;;;;;;;4.80;2.53;;;5.90;88.60;;;;;;5053156;28;20025;-66
2023/04/03 04:56:22;;;;;;;4.30;2.75;;;5.80;88.50;;;;;;5053282;28;20025;-66
2023/04/03 04:58:48;;;;;;;5.28;2.65;;;5.90;88.60;;;;;;5053299;28;20111;-66
2023/04/03 05:01:13;;;;;;;8.10;3.10;;;5.80;88.50;;;;;;5052911;28;20108;-66
2023/04/03 05:03:39;;;;;;;4.45;2.40;;;5.80;88.60;;;;;;5052311;28;20029;-66
2023/04/03 05:06:05;;;;;;;3.78;2.75;;;5.80;88.10;;;;;;5052853;28;20028;-67
2023/04/03 05:08:31;;;;;;;6.70;2.50;;;5.80;88.50;;;;;;5052831;28;20057;-66
2023/04/03 05:10:57;;;;;;;5.20;2.72;;;5.70;87.80;;;;;;5053174;28;20052;-66
2023/04/03 05:13:22;;;;;;;3.60;2.40;;;5.70;87.80;;;;;;5052249;28;20363;-66
2023/04/03 05:15:48;;;;;;;5.38;2.83;;;5.70;87.40;;;;;;5052885;28;20078;-66
2023/04/03 05:18:14;;;;;;;5.53;2.92;;;5.70;87.60;;;;;;5052313;28;20063;-66
2023/04/03 05:20:40;;;;;;;6.03;2.90;;;5.70;87.60;;;;;;5052887;28;20111;-66
2023/04/03 05:23:06;;;;;;;3.92;2.55;;;5.70;87.40;;;;;;5052341;28;20426;-66
2023/04/03 05:25:32;;;;;;;5.72;3.08;;;5.60;87.40;;;;;;5052867;28;20031;-67
2023/04/03 05:27:57;;;;;;;7.80;3.45;;;5.60;88.10;;;;;;5052543;28;20025;-67
2023/04/03 05:30:23;;;;;;;4.03;2.60;;;5.60;88.50;;;;;;5052579;28;20418;-67
2023/04/03 05:32:49;;;;;;;5.63;2.60;;;5.60;88.60;;;;;;5054215;28;20059;-66
2023/04/03 05:35:15;;;;;;;4.05;2.30;;;5.60;88.80;;;;;;5053082;28;20024;-65
2023/04/03 05:37:41;;;;;;;5.70;2.58;;;5.60;88.50;;;;;;5050515;28;20393;-66
2023/04/03 05:40:08;;;;;;;5.82;2.95;;;5.70;88.10;;;;;;5052169;28;20499;-67
2023/04/03 05:42:34;;;;;;;4.47;2.95;;;5.60;87.90;;;;;;5052831;28;20033;-67
2023/04/03 05:45:00;;;;;;;6.53;2.70;;;5.60;88.10;;;;;;5052659;28;20148;-65
2023/04/03 05:47:25;;;;;;;5.25;3.13;;;5.70;88.10;;;;;;5052376;28;20052;-67
2023/04/03 05:49:51;;;;;;;6.68;3.25;;;5.60;87.70;;;;;;5053116;28;20037;-66
2023/04/03 05:52:29;;;;;;;4.55;2.85;;;5.70;88.30;;;;;;5052151;28;20028;-66
2023/04/03 05:54:56;;;;;;;5.93;3.28;;;5.70;88.00;;;;;;5051950;28;20432;-66
2023/04/03 05:57:22;;;;;;;4.03;2.80;;;5.70;87.70;;;;;;5051889;28;20043;-66
2023/04/03 05:59:48;;;;;;;5.72;3.10;;;5.80;87.40;;;;;;5052290;28;20025;-65
2023/04/03 06:02:19;;;;;;;9.15;2.95;;;5.80;87.40;;;;;;5051742;28;20474;-66
2023/04/03 06:04:46;;;;;;;5.57;2.83;;;5.80;87.50;;;;;;5052559;28;20024;-66
2023/04/03 06:07:22;;;;;;;6.70;2.80;;;5.90;86.20;;;;;;5051709;28;20381;-66
2023/04/03 06:09:48;;;;;;;3.47;2.50;;;5.90;84.70;;;;;;5052409;28;20112;-66
2023/04/03 06:12:14;;;;;;;5.13;2.78;;;5.90;85.00;;;;;;5051702;28;20453;-66
2023/04/03 06:14:40;;;;;;;5.50;2.83;;;6.00;85.00;;;;;;5053807;28;20033;-65
2023/04/03 06:17:08;;;;;;;6.60;2.88;;;6.00;84.50;;;;;;5056342;28;20523;-65
2023/04/03 06:19:34;;;;;;;4.95;2.80;;;6.00;84.80;;;;;;5056294;28;20470;-66
2023/04/03 06:22:00;;;;;;;4.40;2.50;;;6.00;84.70;;;;;;5054975;28;20473;-67
2023/04/03 06:24:26;;;;;;;7.05;2.70;;;6.00;84.50;;;;;;5055705;28;20025;-67
2023/04/03 06:26:53;;;;;;;5.47;2.97;;;6.00;84.50;;;;;;5055989;28;20029;-66
2023/04/03 06:29:21;;;;;;;8.32;2.97;;;6.00;84.30;;;;;;5055542;28;20056;-67
2023/04/03 06:31:48;;;;;;;5.63;2.60;;;6.00;83.90;;;;;;5056359;28;20439;-67
2023/04/03 06:34:15;;;;;;;4.38;2.97;;;6.00;83.40;;;;;;5055697;28;20035;-67
2023/04/03 06:36:41;;;;;;;8.32;3.40;;;6.00;83.10;;;;;;5056171;28;20029;-66
2023/04/03 06:39:06;;;;;;;4.78;2.78;;;6.00;82.40;;;;;;5055891;28;20098;-66
2023/04/03 06:41:32;;;;;;;5.28;2.65;;;6.00;82.10;;;;;;5055537;28;20029;-67
2023/04/03 06:43:58;;;;;;;5.80;3.00;;;6.00;81.70;;;;;;5055917;28;20076;-65
2023/04/03 06:46:26;;;;;;;5.07;2.83;;;6.00;81.60;;;;;;5055388;28;20063;-65
2023/04/03 06:48:52;;;;;;;7.00;2.88;;;5.90;81.40;;;;;;5055855;28;20057;-65
2023/04/03 06:51:27;;;;;;;4.65;2.72;;;6.00;81.20;;;;;;5055632;28;20056;-65
2023/04/03 06:53:55;;;;;;;5.47;3.25;;;6.00;80.40;;;;;;5055722;28;20442;-67
2023/04/03 06:56:22;;;;;;;7.78;2.83;;;5.90;80.30;;;;;;5055224;28;20049;-67
2023/04/03 06:58:48;;;;;;;5.38;2.63;;;5.90;80.60;;;;;;5055362;28;20036;-66
2023/04/03 07:01:17;;;;;;;7.60;2.60;;;5.90;79.70;;;;;;5055104;28;20096;-67
2023/04/03 07:03:43;;;;;;;5.35;2.75;;;5.90;79.20;;;;;;5055467;28;20055;-66
2023/04/03 07:06:11;;;;;;;5.45;2.45;;;5.90;79.30;;;;;;5055151;28;20029;-66
2023/04/03 07:08:37;;;;;;;7.30;2.80;;;5.90;79.30;;;;;;5055232;28;20025;-66
2023/04/03 07:11:04;;;;;;;9.25;2.75;;;6.00;79.50;;;;;;5054861;28;20119;-66
2023/04/03 07:13:30;;;;;;;5.53;2.80;;;5.90;79.00;;;;;;5054811;28;20055;-66
2023/04/03 07:15:56;;;;;;;6.40;2.35;;;6.00;78.90;;;;;;5055171;28;20488;-66
2023/04/03 07:18:22;;;;;;;8.85;2.60;;;5.90;78.40;;;;;;5054490;28;20036;-66
2023/04/03 07:20:47;;;;;;;5.22;2.75;;;5.90;77.70;;;;;;5054871;28;20036;-66
2023/04/03 07:23:13;;;;;;;7.18;3.00;;;6.00;78.00;;;;;;5054885;28;20048;-66
2023/04/03 07:25:46;;;;;;;6.72;3.13;;;5.90;77.20;;;;;;5054541;28;20100;-65
2023/04/03 07:28:13;;;;;;;6.32;2.60;;;5.90;77.90;;;;;;5054896;28;20040;-65
2023/04/03 07:30:49;;;;;;;6.88;2.70;;;6.00;78.00;;;;;;5055107;28;20036;-65
2023/04/03 07:33:17;;;;;;;5.00;2.53;;;6.00;75.90;;;;;;5054578;28;20025;-66
2023/04/03 07:35:43;;;;;;;5.70;2.80;;;6.00;75.90;;;;;;5055057;28;20092;-65
2023/04/03 07:38:09;;;;;;;6.50;2.75;;;6.10;76.00;;;;;;5054659;28;20017;-69
2023/04/03 07:40:35;;;;;;;9.55;3.00;;;6.20;75.70;;;;;;5052936;28;20033;-66
2023/04/03 07:43:01;;;;;;;6.68;2.90;;;6.30;76.00;;;;;;5054621;28;20032;-65
2023/04/03 07:45:27;;;;;;;5.70;2.83;;;6.70;76.20;;;;;;5054385;28;20123;-67
2023/04/03 07:47:52;;;;;;;4.22;2.53;;;7.20;74.30;;;;;;5054407;28;20036;-66
2023/04/03 07:50:18;;;;;;;4.07;2.10;;;7.60;72.90;;;;;;5053937;28;20036;-66
2023/04/03 07:52:45;;;;;;;3.72;2.35;;;7.90;69.90;;;;;;5054332;28;20104;-66
2023/04/03 07:55:11;;;;;;;5.00;2.35;;;8.10;68.60;;;;;;5054103;28;20025;-66
2023/04/03 07:57:37;;;;;;;5.55;2.88;;;8.30;67.30;;;;;;5053708;28;20024;-65
2023/04/03 08:00:04;;;;;;;6.10;3.15;;;8.70;65.60;;;;;;5054542;28;20477;-66
2023/04/03 08:02:31;;;;;;;6.95;2.60;;;8.80;64.90;;;;;;5053689;28;20079;-66
2023/04/03 08:04:58;;;;;;;6.35;2.78;;;9.40;63.90;;;;;;5054480;28;20052;-65
2023/04/03 08:07:23;;;;;;;3.80;2.47;;;11.10;63.30;;;;;;5054174;28;20036;-66
2023/04/03 08:09:49;;;;;;;6.75;2.90;;;12.20;58.50;;;;;;5054521;28;20040;-65
2023/04/03 08:12:15;;;;;;;4.43;2.33;;;12.80;53.40;;;;;;5054265;28;20025;-66
2023/04/03 08:14:41;;;;;;;4.20;2.53;;;14.10;51.40;;;;;;5054402;28;20382;-66
2023/04/03 08:17:11;;;;;;;4.65;2.50;;;15.30;49.00;;;;;;5055113;28;20036;-66
2023/04/03 08:19:40;;;;;;;4.38;2.63;;;15.50;46.10;;;;;;5054381;28;20044;-66
2023/04/03 08:22:06;;;;;;;4.93;2.75;;;16.50;43.60;;;;;;5053039;28;20033;-66
2023/04/03 08:24:33;;;;;;;5.38;2.55;;;16.60;42.30;;;;;;5052482;28;20061;-66
2023/04/03 08:26:59;;;;;;;3.78;2.38;;;17.10;41.60;;;;;;5053915;28;20040;-65
2023/04/03 08:29:25;;;;;;;9.13;3.35;;;16.70;39.70;;;;;;5053450;28;20057;-66
2023/04/03 08:31:51;;;;;;;7.93;3.33;;;16.00;40.10;;;;;;5053778;28;20021;-66
2023/04/03 08:34:18;;;;;;;3.75;2.40;;;15.10;41.00;;;;;;5053867;28;20040;-66
2023/04/03 08:36:45;;;;;;;5.32;2.92;;;16.10;41.30;;;;;;5053614;28;20106;-66
2023/04/03 08:39:11;;;;;;;4.40;2.50;;;16.00;39.50;;;;;;5052668;28;20037;-66
2023/04/03 08:41:39;;;;;;;4.55;2.53;;;16.40;40.40;;;;;;5053147;28;20032;-66
2023/04/03 08:44:22;;;;;;;4.82;2.47;;;16.20;39.90;;;;;;5053104;28;20045;-66
2023/04/03 08:47:14;;;;;;;6.07;2.78;;;15.20;40.50;;;;;;5053619;28;20115;-66
2023/04/03 08:49:40;;;;;;;11.20;3.22;;;14.20;41.70;;;;;;5053197;28;20037;-66
2023/04/03 08:52:12;;;;;;;3.15;2.30;;;13.90;43.50;;;;;;5052139;28;20031;-66
2023/04/03 08:54:53;;;;;;;3.65;2.17;;;13.80;42.50;;;;;;5053118;28;20086;-66
2023/04/03 08:57:32;;;;;;;5.20;3.03;;;13.60;43.30;;;;;;5052919;28;20033;-74
2023/04/03 09:00:01;;;;;;;3.40;2.30;;;13.40;43.00;;;;;;5053203;28;20037;-66
2023/04/03 09:02:35;;;;;;;6.47;2.10;;;13.10;43.00;;;;;;5052731;28;20037;-66
2023/04/03 09:05:11;;;;;;;4.30;2.22;;;13.20;42.50;;;;;;5053388;28;20378;-66
2023/04/03 09:07:43;;;;;;;8.73;2.42;;;12.80;41.10;;;;;;5052747;28;20056;-66
2023/04/03 09:10:13;;;;;;;4.38;2.80;;;12.40;42.80;;;;;;5053425;28;20029;-66
2023/04/03 09:12:46;;;;;;;3.60;2.38;;;12.10;43.10;;;;;;5052794;28;20466;-66
2023/04/03 09:15:22;;;;;;;4.57;2.47;;;11.80;43.60;;;;;;5053083;28;20021;-66
2023/04/03 09:18:19;;;;;;;4.97;2.35;;;11.60;44.10;;;;;;5053174;28;20369;-66
2023/04/03 09:21:27;;;;;;;4.57;2.85;;;11.30;44.00;;;;;;5052518;28;20079;-67
2023/04/03 09:23:57;;;;;;;7.38;3.15;;;11.00;45.30;;;;;;5011007;28;20382;-66
2023/04/03 09:26:30;;;;;;;4.97;2.63;;;10.80;46.90;;;;;;5010627;28;20478;-67
2023/04/03 09:28:59;;;;;;;3.25;2.30;;;10.80;47.70;;;;;;5011029;28;20033;-66
2023/04/03 09:31:29;;;;;;;10.02;2.80;;;10.70;47.00;;;;;;5010470;28;20069;-67
2023/04/03 09:34:02;;;;;;;6.45;2.83;;;10.50;47.30;;;;;;5009637;28;20128;-67
2023/04/03 09:36:49;;;;;;;3.88;2.38;;;10.40;47.50;;;;;;4992400;28;20034;-65
2023/04/03 09:39:29;;;;;;;4.78;2.15;;;10.20;47.80;;;;;;4990962;28;20050;-66
2023/04/03 09:42:11;;;;;;;6.38;2.42;;;10.10;47.80;;;;;;4991297;28;20035;-66
2023/04/03 09:44:39;;;;;;;3.75;2.20;;;10.10;47.00;;;;;;4990530;28;20063;-67
2023/04/03 09:47:23;;;;;;;5.38;2.75;;;10.20;48.00;;;;;;4991109;28;20096;-65
2023/04/03 09:49:49;;;;;;;2.97;2.20;;;10.20;47.40;;;;;;4974722;28;20466;-70
2023/04/03 09:52:25;;;;;;;5.53;2.90;;;10.10;48.40;;;;;;5010147;28;20058;-66
2023/04/03 09:54:50;;;;;;;3.97;2.38;;;10.10;48.60;;;;;;5035580;28;20040;-65
2023/04/03 09:57:17;;;;;;;3.63;2.47;;;9.90;47.90;;;;;;5052505;28;20025;-66
2023/04/03 09:59:59;;;;;;;4.05;2.30;;;9.70;49.00;;;;;;5051897;28;20063;-65
2023/04/03 10:02:32;;;;;;;4.85;2.65;;;9.50;48.60;;;;;;5052113;28;20086;-67
2023/04/03 10:04:58;;;;;;;3.97;1.85;;;9.10;48.60;;;;;;5052473;28;20053;-66
2023/04/03 10:07:33;;;;;;;4.68;2.10;;;9.00;49.10;;;;;;5052336;28;20059;-66
2023/04/03 10:10:19;;;;;;;6.13;2.38;;;8.90;49.00;;;;;;5052530;28;20033;-66
2023/04/03 10:12:46;;;;;;;4.80;2.30;;;8.60;48.00;;;;;;5051995;28;20036;-66
2023/04/03 10:15:13;;;;;;;7.28;2.42;;;8.50;49.10;;;;;;5052372;28;20484;-66
2023/04/03 10:17:58;;;;;;;3.92;2.28;;;8.50;49.80;;;;;;5051756;28;20029;-66
2023/04/03 10:20:24;;;;;;;2.90;2.10;;;8.40;50.00;;;;;;5051933;28;20496;-66
2023/04/03 10:23:19;;;;;;;4.60;3.17;;;8.40;50.70;;;;;;5052186;28;20040;-66
2023/04/03 10:26:10;;;;;;;5.85;2.30;;;8.40;50.50;;;;;;5051911;28;20272;-66
2023/04/03 10:29:17;;;;;;;2.97;2.08;;;8.40;50.50;;;;;;5051985;28;20029;-66
2023/04/03 10:32:22;;;;;;;4.53;2.20;;;8.40;49.90;;;;;;5010044;28;20120;-66
2023/04/03 10:34:57;;;;;;;3.97;2.22;;;8.30;49.50;;;;;;5051077;28;20041;-66
2023/04/03 10:37:29;;;;;;;4.65;2.28;;;8.20;50.30;;;;;;5052255;28;20017;-66
2023/04/03 10:40:12;;;;;;;3.53;2.13;;;8.30;50.90;;;;;;5051978;28;20041;-66
2023/04/03 10:42:50;;;;;;;5.10;2.50;;;8.40;50.10;;;;;;5051525;28;20021;-66
2023/04/03 10:45:37;;;;;;;6.28;2.55;;;8.40;50.30;;;;;;5051743;28;20044;-66
2023/04/03 10:48:41;;;;;;;3.80;2.20;;;8.40;49.80;;;;;;5052111;28;20025;-66
2023/04/03 10:51:12;;;;;;;5.45;2.40;;;8.30;49.20;;;;;;5052078;28;20037;-66
2023/04/03 10:54:10;;;;;;;2.95;2.20;;;8.20;48.80;;;;;;5051662;28;20025;-66
2023/04/03 10:56:41;;;;;;;3.47;2.20;;;8.20;49.10;;;;;;5051763;28;20032;-65
2023/04/03 10:59:37;;;;;;;4.45;2.50;;;8.40;49.80;;;;;;5051992;28;20033;-66
2023/04/03 11:02:05;;;;;;;3.53;2.15;;;8.40;48.50;;;;;;5053980;28;20521;-66
2023/04/03 11:04:36;;;;;;;4.35;2.10;;;8.40;46.30;;;;;;5055394;28;20060;-66
2023/04/03 11:07:19;;;;;;;2.97;2.22;;;8.30;46.30;;;;;;5055535;28;20477;-65
2023/04/03 11:09:48;;;;;;;5.43;2.40;;;8.20;46.40;;;;;;5053841;28;20424;-65
2023/04/03 11:12:20;;;;;;;5.78;2.50;;;8.10;46.90;;;;;;5055088;28;20462;-65
2023/04/03 11:14:49;;;;;;;6.45;2.65;;;8.00;47.90;;;;;;5054865;28;20025;-66
2023/04/03 11:17:18;;;;;;;5.05;2.42;;;8.00;48.30;;;;;;5055449;28;20047;-66
2023/04/03 11:20:15;;;;;;;4.15;2.45;;;8.00;48.30;;;;;;5054804;28;20040;-65
2023/04/03 11:22:49;;;;;;;6.82;2.70;;;7.80;48.80;;;;;;5054882;28;20025;-66
2023/04/03 11:25:21;;;;;;;4.97;2.50;;;7.70;49.00;;;;;;5055015;28;20113;-66
2023/04/03 11:27:58;;;;;;;3.25;2.10;;;7.70;49.00;;;;;;5054911;28;20094;-66
2023/04/03 11:30:48;;;;;;;5.13;2.53;;;7.60;49.00;;;;;;5054813;28;20040;-66
2023/04/03 11:33:41;;;;;;;3.90;2.38;;;7.40;50.00;;;;;;5054997;28;20108;-66
2023/04/03 11:36:12;;;;;;;4.30;2.55;;;7.40;49.90;;;;;;5055271;28;20033;-66
2023/04/03 11:38:43;;;;;;;5.47;2.63;;;7.40;49.70;;;;;;5054654;28;20056;-66
2023/04/03 11:41:10;;;;;;;3.83;2.55;;;7.40;49.50;;;;;;5054488;28;20040;-67
2023/04/03 11:43:56;;;;;;;4.45;2.30;;;7.50;49.60;;;;;;5053684;28;20049;-66
2023/04/03 11:46:22;;;;;;;3.58;2.40;;;7.50;49.30;;;;;;5054593;28;20127;-66
2023/04/03 11:48:50;;;;;;;9.15;2.53;;;7.40;48.80;;;;;;5053827;28;20096;-65
2023/04/03 11:51:20;;;;;;;3.88;2.45;;;7.30;48.70;;;;;;5054529;28;20025;-66
2023/04/03 11:53:47;;;;;;;5.22;2.97;;;7.20;48.70;;;;;;5054054;28;20112;-66
2023/04/03 11:56:27;;;;;;;6.80;2.85;;;7.30;49.30;;;;;;5054676;28;20135;-66
2023/04/03 11:59:23;;;;;;;5.88;2.58;;;7.30;48.40;;;;;;5054082;28;20385;-66
2023/04/03 12:01:57;;;;;;;5.30;2.15;;;7.30;48.80;;;;;;5053383;28;20373;-66
2023/04/03 12:04:26;;;;;;;4.82;2.13;;;7.20;48.10;;;;;;5054664;28;20035;-67
2023/04/03 12:07:14;;;;;;;3.95;2.42;;;7.10;48.50;;;;;;5053785;28;20025;-66
2023/04/03 12:09:40;;;;;;;4.95;2.40;;;7.10;48.70;;;;;;5053965;28;20454;-66
2023/04/03 12:12:44;;;;;;;5.38;2.63;;;7.20;48.20;;;;;;5053951;28;20104;-66
2023/04/03 12:15:39;;;;;;;4.55;2.50;;;7.20;47.50;;;;;;5053895;28;20045;-66
2023/04/03 12:18:42;;;;;;;5.05;2.40;;;7.20;46.80;;;;;;5050036;28;20474;-66
2023/04/03 12:21:08;;;;;;;3.58;2.17;;;7.20;47.90;;;;;;5054089;28;20138;-65
2023/04/03 12:23:55;;;;;;;6.70;2.33;;;7.20;48.40;;;;;;5053432;28;20364;-72
2023/04/03 12:26:27;;;;;;;5.28;2.15;;;7.20;47.40;;;;;;5053795;28;20536;-65
2023/04/03 12:28:53;;;;;;;4.25;2.45;;;7.20;46.50;;;;;;5053640;28;20070;-65
2023/04/03 12:31:22;;;;;;;5.10;2.08;;;7.20;46.70;;;;;;5053889;28;20125;-64
2023/04/03 12:34:05;;;;;;;6.85;2.22;;;7.30;46.30;;;;;;5053385;28;20035;-66
2023/04/03 12:36:53;;;;;;;4.25;2.38;;;7.30;46.50;;;;;;5053625;28;20451;-66
2023/04/03 12:39:41;;;;;;;3.05;2.03;;;7.40;46.30;;;;;;5053675;28;20048;-66
2023/04/03 12:42:18;;;;;;;4.28;2.55;;;7.30;45.00;;;;;;5053742;28;20036;-66
2023/04/03 12:45:02;;;;;;;4.68;2.40;;;7.30;45.40;;;;;;5053406;28;20072;-66
2023/04/03 12:47:36;;;;;;;5.30;2.55;;;7.30;45.70;;;;;;5053888;28;20025;-66
2023/04/03 12:50:05;;;;;;;6.85;2.80;;;7.20;45.80;;;;;;5052271;28;20041;-66
2023/04/03 12:52:45;;;;;;;4.38;2.20;;;7.30;45.80;;;;;;5053527;28;20025;-65
2023/04/03 12:55:19;;;;;;;3.50;2.00;;;7.30;45.50;;;;;;5053278;28;20044;-67
2023/04/03 12:57:45;;;;;;;3.35;2.10;;;7.30;45.30;;;;;;5052808;28;20385;-67
2023/04/03 13:00:20;;;;;;;4.25;2.58;;;7.20;44.90;;;;;;5053277;28;20037;-67
2023/04/03 13:02:46;;;;;;;5.15;2.20;;;7.20;45.10;;;;;;5052880;28;20107;-67
2023/04/03 13:05:18;;;;;;;6.32;2.67;;;7.20;45.40;;;;;;5053374;28;20163;-66
2023/04/03 13:07:48;;;;;;;5.32;2.75;;;7.10;45.20;;;;;;5052567;28;20025;-67
2023/04/03 13:10:18;;;;;;;3.25;2.20;;;7.10;45.40;;;;;;5053170;28;20029;-66